• Join FlightAware (Why Join?)
  • Login
  • US Flag 
06:34PM EDT


 

Airport Tracker/Info


-or-


 

Live Flight TrackerFlight Track Log ✈ UCA3599 ✈ 16-Mar-2014 ✈ KBGM - KIAD

Flight Track Log - Related Links

Times and Time Zones

All times are in EDT time to prevent confusion due to time zone crossing. See the UCA3599 flight status page for this flight to view local times or setup timezone preferences in your user account.

Time Position Orientation Groundspeed Altitude Reporting Facility
EDT Latitude Longitude Course Direction KTS MPH feet Rate Location/Type
05:58AM 42.2122 -76.0428 212° Southwest 232 267 4,300  Level New York Center
05:59AM 42.1614 -76.0667 199° South 189 217 5,700 4,800 Climbing New York Center
06:00AM 42.1181 -76.1022 211° Southwest 189 217 14,000 1,380 Climbing New York Center
06:01AM 42.0767 -76.1408 215° Southwest 189 217 8,500 -2,100 Descending New York Center
06:02AM 42.0333 -76.1792 213° Southwest 189 217 9,800 1,320 Climbing New York Center
06:03AM 41.9356 -76.2981 212° Southwest  Level FlightAware Approximate
06:03AM 41.9900 -76.2175 213° Southwest 189 217 11,200  Level New York Center
06:04AM 41.9489 -76.2506 211° Southwest 178 205 12,200 960 Climbing New York Center
06:05AM 41.9097 -76.2892 216° Southwest 178 205 13,200 900 Climbing New York Center
06:06AM 41.8728 -76.3194 211° Southwest 179 206 14,000 360 Climbing New York Center
06:07AM 41.8272 -76.3575 212° Southwest 179 206 14,000  Level New York Center
06:08AM 41.7817 -76.4008 215° Southwest 197 227 14,100  Climbing New York Center
06:09AM 41.7233 -76.4458 210° Southwest 221 254 14,000 -60 Descending New York Center
06:10AM 41.6775 -76.4864 213° Southwest 221 254 14,000  Level New York Center
06:11AM 41.6256 -76.5292 212° Southwest 221 254 14,000  Level New York Center
06:12AM 41.5711 -76.5772 213° Southwest 221 254 14,000  Level New York Center
06:13AM 41.5189 -76.6225 213° Southwest 221 254 14,000  Level New York Center
06:14AM 41.4667 -76.6650 211° Southwest 221 254 14,000  Level New York Center
06:15AM 41.4211 -76.7053 214° Southwest 221 254 14,000  Level New York Center
06:16AM 41.3686 -76.7506 213° Southwest 221 254 14,000  Level New York Center
06:17AM 41.3044 -76.7861 203° Southwest 227 261 14,000  Level New York Center
06:18AM 41.2350 -76.7994 188° South 240 276 14,000  Level New York Center
06:19AM 41.1656 -76.8153 190° South 251 289 14,000  Level New York Center
06:20AM 41.0939 -76.8281 188° South 257 296 14,000  Level New York Center
06:21AM 41.0247 -76.8386 187° South 257 296 14,000  Level New York Center
06:22AM 40.9550 -76.8542 190° South 257 296 14,000  Level New York Center
06:23AM 40.8875 -76.8703 190° South 257 296 14,000  Level New York Center
06:24AM 40.8244 -76.8811 187° South 257 296 14,000  Level New York Center
06:25AM 40.7506 -76.8992 190° South 257 296 14,000  Level New York Center
06:26AM 40.6892 -76.9183 193° South 257 296 14,000  Level New York Center
06:27AM 40.6150 -76.9417 193° South 252 290 14,000  Level New York Center
06:28AM 40.5556 -76.9611 194° South 252 290 14,000  Level New York Center
06:29AM 40.4836 -76.9819 192° South 247 284 14,000  Level New York Center
06:30AM 40.4222 -77.0008 193° South 241 277 14,000  Level New York Center
06:31AM 40.3481 -77.0242 193° South 251 289 14,000 -300 Level New York Center
06:32AM 40.2867 -77.0403 191° South 251 289 13,500 -840 Descending New York Center
06:33AM 40.2103 -77.0661 194° South 251 289 12,400 -900 Descending New York Center
06:34AM 40.1489 -77.0850 193° South 256 295 11,700 -840 Descending New York Center
06:36AM 40.0167 -77.1167 190° South 256 295 10,100 -900 Descending Potomac TRACON
06:37AM 39.9500 -77.1500 201° Southwest 256 295 9,300 -600 Descending Potomac TRACON
06:38AM 39.8833 -77.1667 191° South 245 282 9,000 -540 Descending Potomac TRACON
06:39AM 39.8333 -77.1833 194° South 241 277 8,300 -600 Descending Potomac TRACON
06:40AM 39.7667 -77.2167 201° Southwest 249 287 7,900 -480 Descending Potomac TRACON
06:41AM 39.7000 -77.2333 191° South 247 284 7,500 -540 Descending Potomac TRACON
06:42AM 39.6333 -77.2667 201° Southwest 246 283 7,000 -600 Descending Potomac TRACON
06:43AM 39.5667 -77.2833 191° South 255 293 6,400 -780 Descending Potomac TRACON
06:44AM 39.5000 -77.3000 191° South 249 287 5,600 -840 Descending Potomac TRACON
06:45AM 39.4333 -77.3000 180° South 247 284 4,900 -780 Descending Potomac TRACON
06:46AM 39.3667 -77.3167 191° South 247 284 4,100 -480 Descending Potomac TRACON
06:47AM 39.3000 -77.3333 191° South 249 287 4,000 -60 Descending Potomac TRACON
06:48AM 39.2333 -77.3500 191° South 243 280 4,000  Level Potomac TRACON
06:48AM 39.1833 -77.3500 180° South 239 275 4,000  Level Potomac TRACON
06:49AM 39.1000 -77.3500 180° South 243 280 4,000  Level Potomac TRACON
06:50AM 39.0333 -77.3500 180° South 244 281 4,000  Level Potomac TRACON
06:51AM 38.9833 -77.3500 180° South 230 265 4,000  Level Potomac TRACON
06:52AM 38.9167 -77.3500 180° South 219 252 4,000  Level Potomac TRACON
06:53AM 38.8667 -77.3667 195° South 221 254 4,000 -540 Level Potomac TRACON
06:54AM 38.8000 -77.3667 180° South 225 259 3,000 -1,020 Descending Potomac TRACON
06:55AM 38.7667 -77.4000 218° Southwest 234 269 2,000 -540 Descending Potomac TRACON
06:56AM 38.8000 -77.4333 322° Northwest 176 203 2,000 -120 Level Potomac TRACON
06:57AM 38.8500 -77.4333 360° North 155 178 1,800 -420 Descending Potomac TRACON
06:58AM 38.8833 -77.4333 360° North 119 137 1,200 -600 Descending Potomac TRACON
06:59AM 38.9167 -77.4333 360° North 103 119 600 -600 Descending Potomac TRACON
07:01AM 38.9333 -77.4500 349° North  Level FlightAware Approximate